sensor_id;sensor_type;location;lat;lon;timestamp;pressure;altitude;pressure_sealevel;temperature;humidity
16690;BME280;8458;52.220;9.884;2023-07-09T00:02:11;101088.47;;;23.34;64.29
16690;BME280;8458;52.220;9.884;2023-07-09T00:04:38;101090.34;;;23.30;64.50
16690;BME280;8458;52.220;9.884;2023-07-09T00:07:05;101088.34;;;23.31;64.67
16690;BME280;8458;52.220;9.884;2023-07-09T00:09:31;101095.50;;;23.28;64.71
16690;BME280;8458;52.220;9.884;2023-07-09T00:11:58;101084.59;;;23.18;65.24
16690;BME280;8458;52.220;9.884;2023-07-09T00:14:24;101082.94;;;23.17;65.03
16690;BME280;8458;52.220;9.884;2023-07-09T00:16:52;101093.59;;;23.11;65.01
16690;BME280;8458;52.220;9.884;2023-07-09T00:19:21;101090.59;;;23.07;64.29
16690;BME280;8458;52.220;9.884;2023-07-09T00:21:49;101095.94;;;23.00;64.56
16690;BME280;8458;52.220;9.884;2023-07-09T00:24:18;101097.81;;;22.96;64.55
16690;BME280;8458;52.220;9.884;2023-07-09T00:26:44;101099.94;;;22.99;64.86
16690;BME280;8458;52.220;9.884;2023-07-09T00:29:13;101098.47;;;22.93;65.00
16690;BME280;8458;52.220;9.884;2023-07-09T00:31:40;101102.28;;;22.97;64.57
16690;BME280;8458;52.220;9.884;2023-07-09T00:34:08;101100.13;;;22.94;64.08
16690;BME280;8458;52.220;9.884;2023-07-09T00:36:37;101097.28;;;22.94;64.00
16690;BME280;8458;52.220;9.884;2023-07-09T00:39:04;101089.84;;;22.89;64.10
16690;BME280;8458;52.220;9.884;2023-07-09T00:41:33;101101.81;;;22.86;64.66
16690;BME280;8458;52.220;9.884;2023-07-09T00:44:23;101092.84;;;22.84;65.03
16690;BME280;8458;52.220;9.884;2023-07-09T00:47:23;101088.75;;;22.73;65.54
16690;BME280;8458;52.220;9.884;2023-07-09T00:49:59;101093.56;;;22.72;65.73
16690;BME280;8458;52.220;9.884;2023-07-09T00:52:31;101090.91;;;22.67;65.41
16690;BME280;8458;52.220;9.884;2023-07-09T00:55:04;101091.59;;;22.64;65.64
16690;BME280;8458;52.220;9.884;2023-07-09T00:57:34;101086.97;;;22.60;65.67
16690;BME280;8458;52.220;9.884;2023-07-09T01:00:06;101083.47;;;22.54;65.97
16690;BME280;8458;52.220;9.884;2023-07-09T01:02:35;101085.81;;;22.52;65.86
16690;BME280;8458;52.220;9.884;2023-07-09T01:05:04;101086.97;;;22.51;66.19
16690;BME280;8458;52.220;9.884;2023-07-09T01:07:31;101086.00;;;22.47;66.30
16690;BME280;8458;52.220;9.884;2023-07-09T01:09:59;101081.22;;;22.38;66.43
16690;BME280;8458;52.220;9.884;2023-07-09T01:12:26;101080.22;;;22.34;66.51
16690;BME280;8458;52.220;9.884;2023-07-09T01:14:54;101069.91;;;22.38;66.86
16690;BME280;8458;52.220;9.884;2023-07-09T01:17:24;101073.91;;;22.37;66.93
16690;BME280;8458;52.220;9.884;2023-07-09T01:19:52;101073.22;;;22.41;66.44
16690;BME280;8458;52.220;9.884;2023-07-09T01:22:21;101073.56;;;22.30;66.27
16690;BME280;8458;52.220;9.884;2023-07-09T01:24:51;101068.41;;;22.24;66.38
16690;BME280;8458;52.220;9.884;2023-07-09T01:27:24;101074.38;;;22.22;66.57
16690;BME280;8458;52.220;9.884;2023-07-09T01:29:51;101079.03;;;22.18;66.36
16690;BME280;8458;52.220;9.884;2023-07-09T01:32:19;101073.38;;;22.18;66.40
16690;BME280;8458;52.220;9.884;2023-07-09T01:34:48;101079.22;;;22.13;66.48
16690;BME280;8458;52.220;9.884;2023-07-09T01:37:17;101079.88;;;22.10;66.66
16690;BME280;8458;52.220;9.884;2023-07-09T01:39:46;101077.06;;;22.10;66.45
16690;BME280;8458;52.220;9.884;2023-07-09T01:42:12;101083.88;;;22.09;66.42
16690;BME280;8458;52.220;9.884;2023-07-09T01:44:39;101090.03;;;22.02;66.72
16690;BME280;8458;52.220;9.884;2023-07-09T01:47:06;101076.72;;;22.02;66.75
16690;BME280;8458;52.220;9.884;2023-07-09T01:49:33;101081.06;;;22.00;67.16
16690;BME280;8458;52.220;9.884;2023-07-09T01:52:01;101078.56;;;21.98;66.95
16690;BME280;8458;52.220;9.884;2023-07-09T01:54:29;101076.56;;;21.90;66.99
16690;BME280;8458;52.220;9.884;2023-07-09T01:57:14;101077.06;;;21.83;66.60
16690;BME280;8458;52.220;9.884;2023-07-09T01:59:41;101076.06;;;21.79;65.48
16690;BME280;8458;52.220;9.884;2023-07-09T02:02:09;101081.72;;;21.71;66.14
16690;BME280;8458;52.220;9.884;2023-07-09T02:04:40;101087.03;;;21.81;65.49
16690;BME280;8458;52.220;9.884;2023-07-09T02:07:08;101083.22;;;21.68;66.58
16690;BME280;8458;52.220;9.884;2023-07-09T02:09:34;101084.19;;;21.63;67.14
16690;BME280;8458;52.220;9.884;2023-07-09T02:12:02;101073.06;;;21.67;67.24
16690;BME280;8458;52.220;9.884;2023-07-09T02:14:29;101074.59;;;21.64;67.66
16690;BME280;8458;52.220;9.884;2023-07-09T02:16:55;101092.34;;;21.65;67.52
16690;BME280;8458;52.220;9.884;2023-07-09T02:19:22;101080.22;;;21.56;67.44
16690;BME280;8458;52.220;9.884;2023-07-09T02:21:48;101076.72;;;21.59;67.40
16690;BME280;8458;52.220;9.884;2023-07-09T02:24:15;101081.19;;;21.51;67.87
16690;BME280;8458;52.220;9.884;2023-07-09T02:26:41;101085.16;;;21.50;67.78
16690;BME280;8458;52.220;9.884;2023-07-09T02:29:09;101089.47;;;21.47;67.99
16690;BME280;8458;52.220;9.884;2023-07-09T02:31:35;101092.63;;;21.46;68.29
16690;BME280;8458;52.220;9.884;2023-07-09T02:34:02;101090.25;;;21.39;68.59
16690;BME280;8458;52.220;9.884;2023-07-09T02:36:29;101091.13;;;21.40;68.74
16690;BME280;8458;52.220;9.884;2023-07-09T02:38:55;101093.25;;;21.34;68.66
16690;BME280;8458;52.220;9.884;2023-07-09T02:41:22;101093.88;;;21.22;69.12
16690;BME280;8458;52.220;9.884;2023-07-09T02:43:48;101090.06;;;21.18;68.82
16690;BME280;8458;52.220;9.884;2023-07-09T02:46:16;101087.06;;;21.14;68.94
16690;BME280;8458;52.220;9.884;2023-07-09T02:48:43;101083.56;;;21.18;69.03
16690;BME280;8458;52.220;9.884;2023-07-09T02:51:09;101081.72;;;21.13;69.37
16690;BME280;8458;52.220;9.884;2023-07-09T02:53:36;101088.22;;;21.13;69.43
16690;BME280;8458;52.220;9.884;2023-07-09T02:56:02;101085.09;;;21.15;69.83
16690;BME280;8458;52.220;9.884;2023-07-09T02:58:29;101077.94;;;21.09;70.05
16690;BME280;8458;52.220;9.884;2023-07-09T03:00:55;101081.41;;;21.06;69.96
16690;BME280;8458;52.220;9.884;2023-07-09T03:03:23;101088.34;;;21.00;69.64
16690;BME280;8458;52.220;9.884;2023-07-09T03:05:50;101084.19;;;20.97;69.15
16690;BME280;8458;52.220;9.884;2023-07-09T03:08:16;101083.00;;;20.89;69.17
16690;BME280;8458;52.220;9.884;2023-07-09T03:10:43;101083.00;;;20.89;68.90
16690;BME280;8458;52.220;9.884;2023-07-09T03:13:09;101085.31;;;20.87;69.34
16690;BME280;8458;52.220;9.884;2023-07-09T03:15:36;101088.94;;;20.88;69.44
16690;BME280;8458;52.220;9.884;2023-07-09T03:18:02;101096.22;;;20.80;69.61
16690;BME280;8458;52.220;9.884;2023-07-09T03:20:30;101089.75;;;20.80;69.21
16690;BME280;8458;52.220;9.884;2023-07-09T03:22:57;101101.81;;;20.71;69.51
16690;BME280;8458;52.220;9.884;2023-07-09T03:25:23;101097.16;;;20.67;69.47
16690;BME280;8458;52.220;9.884;2023-07-09T03:27:50;101093.81;;;20.65;69.96
16690;BME280;8458;52.220;9.884;2023-07-09T03:30:16;101090.63;;;20.57;70.39
16690;BME280;8458;52.220;9.884;2023-07-09T03:32:43;101087.28;;;20.55;70.55
16690;BME280;8458;52.220;9.884;2023-07-09T03:35:09;101094.56;;;20.56;70.86
16690;BME280;8458;52.220;9.884;2023-07-09T03:37:37;101092.59;;;20.57;71.00
16690;BME280;8458;52.220;9.884;2023-07-09T03:40:05;101097.41;;;20.56;70.24
16690;BME280;8458;52.220;9.884;2023-07-09T03:42:32;101103.41;;;20.64;70.11
16690;BME280;8458;52.220;9.884;2023-07-09T03:44:59;101103.66;;;20.53;70.48
16690;BME280;8458;52.220;9.884;2023-07-09T03:47:25;101102.66;;;20.49;70.45
16690;BME280;8458;52.220;9.884;2023-07-09T03:49:52;101111.63;;;20.51;70.07
16690;BME280;8458;52.220;9.884;2023-07-09T03:52:18;101100.53;;;20.55;69.79
16690;BME280;8458;52.220;9.884;2023-07-09T03:54:46;101107.78;;;20.47;70.26
16690;BME280;8458;52.220;9.884;2023-07-09T03:57:12;101106.00;;;20.51;70.52
16690;BME280;8458;52.220;9.884;2023-07-09T03:59:39;101109.13;;;20.50;70.79
16690;BME280;8458;52.220;9.884;2023-07-09T04:02:06;101110.78;;;20.51;70.98
16690;BME280;8458;52.220;9.884;2023-07-09T04:04:32;101108.66;;;20.56;70.88
16690;BME280;8458;52.220;9.884;2023-07-09T04:06:59;101118.25;;;20.55;70.50
16690;BME280;8458;52.220;9.884;2023-07-09T04:09:25;101116.09;;;20.52;70.75
16690;BME280;8458;52.220;9.884;2023-07-09T04:11:53;101112.75;;;20.50;71.00
16690;BME280;8458;52.220;9.884;2023-07-09T04:14:19;101113.25;;;20.52;71.65
16690;BME280;8458;52.220;9.884;2023-07-09T04:16:46;101104.50;;;20.54;71.82
16690;BME280;8458;52.220;9.884;2023-07-09T04:19:13;101104.50;;;20.54;72.21
16690;BME280;8458;52.220;9.884;2023-07-09T04:21:39;101107.63;;;20.52;72.54
16690;BME280;8458;52.220;9.884;2023-07-09T04:24:06;101100.72;;;20.58;72.43
16690;BME280;8458;52.220;9.884;2023-07-09T04:26:32;101101.56;;;20.59;72.47
16690;BME280;8458;52.220;9.884;2023-07-09T04:29:01;101105.03;;;20.56;72.25
16690;BME280;8458;52.220;9.884;2023-07-09T04:31:28;101104.06;;;20.60;72.32
16690;BME280;8458;52.220;9.884;2023-07-09T04:33:55;101100.59;;;20.64;71.98
16690;BME280;8458;52.220;9.884;2023-07-09T04:36:21;101099.97;;;20.67;72.01
16690;BME280;8458;52.220;9.884;2023-07-09T04:38:48;101103.63;;;20.67;72.04
16690;BME280;8458;52.220;9.884;2023-07-09T04:41:14;101112.38;;;20.66;72.59
16690;BME280;8458;52.220;9.884;2023-07-09T04:43:41;101109.69;;;20.60;73.87
16690;BME280;8458;52.220;9.884;2023-07-09T04:46:09;101108.75;;;20.65;73.99
16690;BME280;8458;52.220;9.884;2023-07-09T04:48:35;101110.06;;;20.68;74.08
16690;BME280;8458;52.220;9.884;2023-07-09T04:51:02;101117.38;;;20.69;73.92
16690;BME280;8458;52.220;9.884;2023-07-09T04:53:29;101120.91;;;20.74;73.63
16690;BME280;8458;52.220;9.884;2023-07-09T04:55:55;101124.03;;;20.73;73.85
16690;BME280;8458;52.220;9.884;2023-07-09T04:58:21;101116.09;;;20.75;73.54
16690;BME280;8458;52.220;9.884;2023-07-09T05:00:48;101116.25;;;20.78;73.59
16690;BME280;8458;52.220;9.884;2023-07-09T05:03:18;101115.28;;;20.83;73.74
16690;BME280;8458;52.220;9.884;2023-07-09T05:05:46;101113.31;;;20.84;74.32
16690;BME280;8458;52.220;9.884;2023-07-09T05:08:13;101122.44;;;20.89;74.10
16690;BME280;8458;52.220;9.884;2023-07-09T05:10:43;101119.50;;;20.94;73.83
16690;BME280;8458;52.220;9.884;2023-07-09T05:13:10;101120.97;;;20.92;74.07
16690;BME280;8458;52.220;9.884;2023-07-09T05:15:40;101121.16;;;20.95;73.68
16690;BME280;8458;52.220;9.884;2023-07-09T05:18:07;101108.72;;;20.97;74.02
16690;BME280;8458;52.220;9.884;2023-07-09T05:20:35;101117.56;;;21.04;74.02
16690;BME280;8458;52.220;9.884;2023-07-09T05:23:01;101124.34;;;21.11;74.26
16690;BME280;8458;52.220;9.884;2023-07-09T05:25:28;101112.94;;;21.17;74.34
16690;BME280;8458;52.220;9.884;2023-07-09T05:27:54;101120.22;;;21.18;74.57
16690;BME280;8458;52.220;9.884;2023-07-09T05:30:21;101125.75;;;21.23;74.29
16690;BME280;8458;52.220;9.884;2023-07-09T05:32:48;101116.31;;;21.27;74.27
16690;BME280;8458;52.220;9.884;2023-07-09T05:35:14;101110.00;;;21.30;74.38
16690;BME280;8458;52.220;9.884;2023-07-09T05:37:42;101118.78;;;21.29;75.06
16690;BME280;8458;52.220;9.884;2023-07-09T05:40:09;101121.09;;;21.27;75.68
16690;BME280;8458;52.220;9.884;2023-07-09T05:42:35;101124.09;;;21.30;75.96
16690;BME280;8458;52.220;9.884;2023-07-09T05:45:02;101127.91;;;21.35;76.25
16690;BME280;8458;52.220;9.884;2023-07-09T05:47:29;101127.91;;;21.35;77.08
16690;BME280;8458;52.220;9.884;2023-07-09T05:49:55;101123.44;;;21.42;77.31
16690;BME280;8458;52.220;9.884;2023-07-09T05:52:23;101119.03;;;21.50;77.52
16690;BME280;8458;52.220;9.884;2023-07-09T05:54:51;101123.34;;;21.56;77.23
16690;BME280;8458;52.220;9.884;2023-07-09T05:57:18;101124.53;;;21.64;77.03
16690;BME280;8458;52.220;9.884;2023-07-09T05:59:44;101123.41;;;21.74;76.71
16690;BME280;8458;52.220;9.884;2023-07-09T06:02:12;101133.16;;;21.76;77.20
16690;BME280;8458;52.220;9.884;2023-07-09T06:04:39;101132.03;;;21.86;76.99
16690;BME280;8458;52.220;9.884;2023-07-09T06:07:07;101133.22;;;21.94;75.89
16690;BME280;8458;52.220;9.884;2023-07-09T06:09:34;101132.69;;;22.00;71.33
16690;BME280;8458;52.220;9.884;2023-07-09T06:12:02;101136.00;;;22.02;69.28
16690;BME280;8458;52.220;9.884;2023-07-09T06:14:31;101136.53;;;22.05;68.50
16690;BME280;8458;52.220;9.884;2023-07-09T06:16:58;101127.88;;;22.10;68.85
16690;BME280;8458;52.220;9.884;2023-07-09T06:19:24;101132.53;;;22.14;69.09
16690;BME280;8458;52.220;9.884;2023-07-09T06:21:51;101132.03;;;22.21;67.85
16690;BME280;8458;52.220;9.884;2023-07-09T06:24:18;101131.53;;;22.28;67.54
16690;BME280;8458;52.220;9.884;2023-07-09T06:26:44;101131.88;;;22.35;67.68
16690;BME280;8458;52.220;9.884;2023-07-09T06:29:12;101131.88;;;22.44;68.93
16690;BME280;8458;52.220;9.884;2023-07-09T06:31:39;101138.50;;;22.56;69.78
16690;BME280;8458;52.220;9.884;2023-07-09T06:34:06;101131.63;;;22.66;69.63
16690;BME280;8458;52.220;9.884;2023-07-09T06:36:33;101133.63;;;22.74;69.44
16690;BME280;8458;52.220;9.884;2023-07-09T06:39:00;101141.25;;;22.83;70.15
16690;BME280;8458;52.220;9.884;2023-07-09T06:41:26;101137.38;;;22.96;72.38
16690;BME280;8458;52.220;9.884;2023-07-09T06:43:53;101140.66;;;23.07;72.08
16690;BME280;8458;52.220;9.884;2023-07-09T06:46:21;101135.50;;;23.18;69.56
16690;BME280;8458;52.220;9.884;2023-07-09T06:48:47;101137.44;;;23.26;67.10
16690;BME280;8458;52.220;9.884;2023-07-09T06:51:14;101140.06;;;23.31;69.76
16690;BME280;8458;52.220;9.884;2023-07-09T06:53:41;101138.03;;;23.40;69.56
16690;BME280;8458;52.220;9.884;2023-07-09T06:56:08;101128.69;;;23.49;68.21
16690;BME280;8458;52.220;9.884;2023-07-09T06:58:36;101142.91;;;23.61;69.34
16690;BME280;8458;52.220;9.884;2023-07-09T07:01:04;101133.53;;;23.69;68.84
16690;BME280;8458;52.220;9.884;2023-07-09T07:03:32;101134.28;;;23.78;66.62
16690;BME280;8458;52.220;9.884;2023-07-09T07:05:59;101137.94;;;23.88;68.49
16690;BME280;8458;52.220;9.884;2023-07-09T07:08:26;101142.00;;;23.99;68.93
16690;BME280;8458;52.220;9.884;2023-07-09T07:10:55;101144.88;;;24.11;68.52
16690;BME280;8458;52.220;9.884;2023-07-09T07:13:27;101136.44;;;24.24;68.46
16690;BME280;8458;52.220;9.884;2023-07-09T07:15:53;101136.97;;;24.38;69.05
16690;BME280;8458;52.220;9.884;2023-07-09T07:18:20;101139.16;;;24.53;65.85
16690;BME280;8458;52.220;9.884;2023-07-09T07:20:48;101134.75;;;24.65;65.46
16690;BME280;8458;52.220;9.884;2023-07-09T07:23:15;101133.59;;;24.78;64.20
16690;BME280;8458;52.220;9.884;2023-07-09T07:25:41;101134.91;;;24.93;65.41
16690;BME280;8458;52.220;9.884;2023-07-09T07:28:08;101134.09;;;25.05;65.40
16690;BME280;8458;52.220;9.884;2023-07-09T07:30:34;101152.78;;;25.18;65.45
16690;BME280;8458;52.220;9.884;2023-07-09T07:33:01;101137.47;;;25.32;64.20
16690;BME280;8458;52.220;9.884;2023-07-09T07:35:27;101145.63;;;25.46;65.38
16690;BME280;8458;52.220;9.884;2023-07-09T07:37:55;101139.56;;;25.59;65.56
16690;BME280;8458;52.220;9.884;2023-07-09T07:40:22;101131.84;;;25.72;64.76
16690;BME280;8458;52.220;9.884;2023-07-09T07:42:48;101141.88;;;25.82;63.07
16690;BME280;8458;52.220;9.884;2023-07-09T07:45:15;101134.78;;;25.88;63.04
16690;BME280;8458;52.220;9.884;2023-07-09T07:47:42;101130.28;;;26.00;63.01
16690;BME280;8458;52.220;9.884;2023-07-09T07:50:09;101125.75;;;26.11;60.93
16690;BME280;8458;52.220;9.884;2023-07-09T07:52:36;101133.28;;;26.19;59.59
16690;BME280;8458;52.220;9.884;2023-07-09T07:55:05;101133.03;;;26.24;60.33
16690;BME280;8458;52.220;9.884;2023-07-09T07:57:31;101129.47;;;26.27;59.90
16690;BME280;8458;52.220;9.884;2023-07-09T07:59:58;101129.22;;;26.33;59.36
16690;BME280;8458;52.220;9.884;2023-07-09T08:02:25;101121.59;;;26.37;58.54
16690;BME280;8458;52.220;9.884;2023-07-09T08:04:51;101120.16;;;26.43;58.54
16690;BME280;8458;52.220;9.884;2023-07-09T08:07:19;101128.16;;;26.53;58.96
16690;BME280;8458;52.220;9.884;2023-07-09T08:09:46;101130.34;;;26.60;56.73
16690;BME280;8458;52.220;9.884;2023-07-09T08:12:14;101137.09;;;26.68;57.04
16690;BME280;8458;52.220;9.884;2023-07-09T08:14:42;101128.03;;;26.78;57.01
16690;BME280;8458;52.220;9.884;2023-07-09T08:17:11;101135.19;;;26.88;58.88
16690;BME280;8458;52.220;9.884;2023-07-09T08:19:44;101125.03;;;27.02;58.65
16690;BME280;8458;52.220;9.884;2023-07-09T08:22:12;101123.91;;;27.23;59.59
16690;BME280;8458;52.220;9.884;2023-07-09T08:24:38;101132.28;;;27.32;56.44
16690;BME280;8458;52.220;9.884;2023-07-09T08:27:06;101122.66;;;27.36;52.67
16690;BME280;8458;52.220;9.884;2023-07-09T08:29:34;101124.47;;;27.45;53.86
16690;BME280;8458;52.220;9.884;2023-07-09T08:32:01;101129.59;;;27.55;53.65
16690;BME280;8458;52.220;9.884;2023-07-09T08:34:28;101125.41;;;27.68;54.26
16690;BME280;8458;52.220;9.884;2023-07-09T08:36:54;101118.78;;;27.80;52.70
16690;BME280;8458;52.220;9.884;2023-07-09T08:39:21;101118.25;;;27.94;52.53
16690;BME280;8458;52.220;9.884;2023-07-09T08:41:52;101125.78;;;28.02;51.81
16690;BME280;8458;52.220;9.884;2023-07-09T08:44:52;101124.44;;;28.16;50.41
16690;BME280;8458;52.220;9.884;2023-07-09T08:47:31;101126.63;;;28.22;51.13
16690;BME280;8458;52.220;9.884;2023-07-09T08:50:03;101115.44;;;28.33;52.48
16690;BME280;8458;52.220;9.884;2023-07-09T08:52:35;101114.50;;;28.49;53.54
16690;BME280;8458;52.220;9.884;2023-07-09T08:55:06;101114.06;;;28.66;53.56
16690;BME280;8458;52.220;9.884;2023-07-09T08:57:37;101114.34;;;28.81;51.79
16690;BME280;8458;52.220;9.884;2023-07-09T09:00:13;101118.56;;;28.90;51.28
16690;BME280;8458;52.220;9.884;2023-07-09T09:02:46;101108.09;;;28.98;51.59
16690;BME280;8458;52.220;9.884;2023-07-09T09:05:18;101116.09;;;29.12;50.01
16690;BME280;8458;52.220;9.884;2023-07-09T09:07:49;101113.75;;;29.18;49.43
16690;BME280;8458;52.220;9.884;2023-07-09T09:10:18;101123.19;;;29.22;49.18
16690;BME280;8458;52.220;9.884;2023-07-09T09:12:59;101116.47;;;29.33;52.14
16690;BME280;8458;52.220;9.884;2023-07-09T09:15:31;101124.88;;;29.49;50.24
16690;BME280;8458;52.220;9.884;2023-07-09T09:18:17;101119.78;;;29.62;49.37
16690;BME280;8458;52.220;9.884;2023-07-09T09:20:48;101116.63;;;29.71;49.10
16690;BME280;8458;52.220;9.884;2023-07-09T09:23:15;101115.59;;;29.83;49.33
16690;BME280;8458;52.220;9.884;2023-07-09T09:25:45;101106.28;;;29.90;49.03
16690;BME280;8458;52.220;9.884;2023-07-09T09:28:13;101103.19;;;30.02;48.37
16690;BME280;8458;52.220;9.884;2023-07-09T09:30:41;101109.00;;;30.09;46.94
16690;BME280;8458;52.220;9.884;2023-07-09T09:33:10;101108.31;;;30.19;48.91
16690;BME280;8458;52.220;9.884;2023-07-09T09:35:39;101097.41;;;30.29;46.50
16690;BME280;8458;52.220;9.884;2023-07-09T09:38:11;101098.38;;;30.40;49.09
16690;BME280;8458;52.220;9.884;2023-07-09T09:40:38;101101.34;;;30.51;48.17
16690;BME280;8458;52.220;9.884;2023-07-09T09:43:12;101099.81;;;30.61;46.38
16690;BME280;8458;52.220;9.884;2023-07-09T09:45:42;101108.84;;;30.66;46.37
16690;BME280;8458;52.220;9.884;2023-07-09T09:48:14;101108.13;;;30.77;47.16
16690;BME280;8458;52.220;9.884;2023-07-09T09:50:41;101106.59;;;30.86;47.21
16690;BME280;8458;52.220;9.884;2023-07-09T09:53:08;101112.47;;;30.97;47.09
16690;BME280;8458;52.220;9.884;2023-07-09T09:55:38;101108.41;;;31.05;45.40
16690;BME280;8458;52.220;9.884;2023-07-09T09:58:11;101112.63;;;31.19;47.12
16690;BME280;8458;52.220;9.884;2023-07-09T10:00:39;101115.94;;;31.24;45.44
16690;BME280;8458;52.220;9.884;2023-07-09T10:03:07;101111.13;;;31.36;46.30
16690;BME280;8458;52.220;9.884;2023-07-09T10:05:43;101115.75;;;31.51;45.13
16690;BME280;8458;52.220;9.884;2023-07-09T10:08:16;101113.81;;;31.70;44.47
16690;BME280;8458;52.220;9.884;2023-07-09T10:10:46;101111.44;;;31.86;44.67
16690;BME280;8458;52.220;9.884;2023-07-09T10:13:20;101115.63;;;31.99;42.41
16690;BME280;8458;52.220;9.884;2023-07-09T10:15:59;101112.75;;;32.03;42.72
16690;BME280;8458;52.220;9.884;2023-07-09T10:18:39;101116.91;;;32.13;43.59
16690;BME280;8458;52.220;9.884;2023-07-09T10:21:15;101111.66;;;32.26;42.20
16690;BME280;8458;52.220;9.884;2023-07-09T10:23:50;101099.78;;;32.27;40.75
16690;BME280;8458;52.220;9.884;2023-07-09T10:26:27;101104.25;;;32.21;40.30
16690;BME280;8458;52.220;9.884;2023-07-09T10:29:14;101112.44;;;32.15;41.30
16690;BME280;8458;52.220;9.884;2023-07-09T10:31:50;101110.00;;;32.21;42.04
16690;BME280;8458;52.220;9.884;2023-07-09T10:34:28;101103.47;;;32.31;43.11
16690;BME280;8458;52.220;9.884;2023-07-09T10:37:14;101104.34;;;32.43;42.31
16690;BME280;8458;52.220;9.884;2023-07-09T10:39:43;101111.72;;;32.51;40.25
16690;BME280;8458;52.220;9.884;2023-07-09T10:42:18;101106.41;;;32.60;42.25
16690;BME280;8458;52.220;9.884;2023-07-09T10:44:54;101110.97;;;32.76;40.77
16690;BME280;8458;52.220;9.884;2023-07-09T10:47:30;101099.06;;;32.81;40.81
16690;BME280;8458;52.220;9.884;2023-07-09T10:49:58;101093.34;;;32.88;40.56
16690;BME280;8458;52.220;9.884;2023-07-09T10:52:29;101099.91;;;32.99;42.10
16690;BME280;8458;52.220;9.884;2023-07-09T10:54:59;101092.94;;;33.04;40.95
16690;BME280;8458;52.220;9.884;2023-07-09T10:57:30;101101.56;;;33.15;41.26
16690;BME280;8458;52.220;9.884;2023-07-09T11:00:01;101094.59;;;33.23;40.85
16690;BME280;8458;52.220;9.884;2023-07-09T11:02:30;101093.75;;;33.26;39.78
16690;BME280;8458;52.220;9.884;2023-07-09T11:05:00;101086.00;;;33.27;39.83
16690;BME280;8458;52.220;9.884;2023-07-09T11:07:31;101096.63;;;33.26;40.20
16690;BME280;8458;52.220;9.884;2023-07-09T11:10:01;101083.53;;;33.25;41.04
16690;BME280;8458;52.220;9.884;2023-07-09T11:12:32;101093.38;;;33.24;41.81
16690;BME280;8458;52.220;9.884;2023-07-09T11:15:03;101095.00;;;33.29;43.11
16690;BME280;8458;52.220;9.884;2023-07-09T11:17:32;101090.09;;;33.33;41.94
16690;BME280;8458;52.220;9.884;2023-07-09T11:20:14;101094.19;;;33.39;40.84
16690;BME280;8458;52.220;9.884;2023-07-09T11:22:50;101089.63;;;33.41;40.60
16690;BME280;8458;52.220;9.884;2023-07-09T11:25:28;101080.63;;;33.47;40.85
16690;BME280;8458;52.220;9.884;2023-07-09T11:28:03;101083.50;;;33.47;40.71
16690;BME280;8458;52.220;9.884;2023-07-09T11:30:30;101077.31;;;33.59;40.97
16690;BME280;8458;52.220;9.884;2023-07-09T11:32:58;101082.22;;;33.62;40.19
16690;BME280;8458;52.220;9.884;2023-07-09T11:35:27;101074.00;;;33.71;39.32
16690;BME280;8458;52.220;9.884;2023-07-09T11:37:55;101068.63;;;33.81;41.00
16690;BME280;8458;52.220;9.884;2023-07-09T11:40:24;101068.56;;;33.95;41.08
16690;BME280;8458;52.220;9.884;2023-07-09T11:42:53;101070.59;;;34.05;39.99
16690;BME280;8458;52.220;9.884;2023-07-09T11:45:23;101070.13;;;34.14;39.40
16690;BME280;8458;52.220;9.884;2023-07-09T11:47:55;101075.41;;;34.23;40.14
16690;BME280;8458;52.220;9.884;2023-07-09T11:50:28;101072.50;;;34.30;39.68
16690;BME280;8458;52.220;9.884;2023-07-09T11:52:57;101056.41;;;34.43;40.22
16690;BME280;8458;52.220;9.884;2023-07-09T11:55:36;101055.88;;;34.59;40.37
16690;BME280;8458;52.220;9.884;2023-07-09T11:58:05;101060.31;;;34.71;38.67
16690;BME280;8458;52.220;9.884;2023-07-09T12:00:38;101052.91;;;34.70;37.81
16690;BME280;8458;52.220;9.884;2023-07-09T12:03:09;101057.91;;;34.66;37.12
16690;BME280;8458;52.220;9.884;2023-07-09T12:05:41;101053.03;;;34.56;36.63
16690;BME280;8458;52.220;9.884;2023-07-09T12:08:14;101053.84;;;34.56;38.29
16690;BME280;8458;52.220;9.884;2023-07-09T12:10:41;101052.19;;;34.59;37.40
16690;BME280;8458;52.220;9.884;2023-07-09T12:13:10;101056.28;;;34.58;38.37
16690;BME280;8458;52.220;9.884;2023-07-09T12:15:38;101057.97;;;34.55;37.50
16690;BME280;8458;52.220;9.884;2023-07-09T12:18:10;101048.94;;;34.53;37.13
16690;BME280;8458;52.220;9.884;2023-07-09T12:20:39;101053.41;;;34.58;37.90
16690;BME280;8458;52.220;9.884;2023-07-09T12:23:10;101048.94;;;34.57;38.72
16690;BME280;8458;52.220;9.884;2023-07-09T12:25:37;101038.66;;;34.56;37.34
16690;BME280;8458;52.220;9.884;2023-07-09T12:28:04;101035.34;;;34.57;37.61
16690;BME280;8458;52.220;9.884;2023-07-09T12:30:32;101041.53;;;34.56;36.72
16690;BME280;8458;52.220;9.884;2023-07-09T12:32:59;101035.63;;;34.70;38.18
16690;BME280;8458;52.220;9.884;2023-07-09T12:35:28;101034.78;;;34.80;36.74
16690;BME280;8458;52.220;9.884;2023-07-09T12:37:56;101033.50;;;34.85;36.99
16690;BME280;8458;52.220;9.884;2023-07-09T12:40:28;101027.25;;;34.94;36.99
16690;BME280;8458;52.220;9.884;2023-07-09T12:42:55;101024.72;;;35.03;36.79
16690;BME280;8458;52.220;9.884;2023-07-09T12:45:23;101022.22;;;35.05;35.79
16690;BME280;8458;52.220;9.884;2023-07-09T12:47:50;101023.00;;;35.06;37.38
16690;BME280;8458;52.220;9.884;2023-07-09T12:50:27;101016.81;;;35.07;36.99
16690;BME280;8458;52.220;9.884;2023-07-09T12:52:56;101016.38;;;35.12;37.62
16690;BME280;8458;52.220;9.884;2023-07-09T12:55:27;101012.97;;;35.21;37.97
16690;BME280;8458;52.220;9.884;2023-07-09T12:57:56;101013.31;;;35.34;36.79
16690;BME280;8458;52.220;9.884;2023-07-09T13:00:26;101015.97;;;35.52;37.57
16690;BME280;8458;52.220;9.884;2023-07-09T13:02:55;101012.13;;;35.62;36.52
16690;BME280;8458;52.220;9.884;2023-07-09T13:05:25;101009.03;;;35.80;37.05
16690;BME280;8458;52.220;9.884;2023-07-09T13:07:53;101003.97;;;35.92;35.00
16690;BME280;8458;52.220;9.884;2023-07-09T13:10:22;101004.25;;;36.01;36.06